sensor_id;sensor_type;location;lat;lon;timestamp;temperature;humidity
1570;DHT22;778;50.120;8.698;2023-02-13T00:01:29;8.20;99.90
1570;DHT22;778;50.120;8.698;2023-02-13T00:03:59;8.20;99.90
1570;DHT22;778;50.120;8.698;2023-02-13T00:06:27;8.30;99.90
1570;DHT22;778;50.120;8.698;2023-02-13T00:08:56;8.30;99.90
1570;DHT22;778;50.120;8.698;2023-02-13T00:11:24;8.30;99.90
1570;DHT22;778;50.120;8.698;2023-02-13T00:13:54;8.30;99.90
1570;DHT22;778;50.120;8.698;2023-02-13T00:16:23;8.30;99.90
1570;DHT22;778;50.120;8.698;2023-02-13T00:18:51;8.30;99.90
1570;DHT22;778;50.120;8.698;2023-02-13T00:21:20;8.20;99.90
1570;DHT22;778;50.120;8.698;2023-02-13T00:23:48;8.20;99.90
1570;DHT22;778;50.120;8.698;2023-02-13T00:26:17;8.20;99.90
1570;DHT22;778;50.120;8.698;2023-02-13T00:28:46;8.20;99.90
1570;DHT22;778;50.120;8.698;2023-02-13T00:31:18;8.20;99.90
1570;DHT22;778;50.120;8.698;2023-02-13T00:33:48;8.20;99.90
1570;DHT22;778;50.120;8.698;2023-02-13T00:36:19;8.20;99.90
1570;DHT22;778;50.120;8.698;2023-02-13T00:38:48;8.20;99.90
1570;DHT22;778;50.120;8.698;2023-02-13T00:41:19;8.20;99.90
1570;DHT22;778;50.120;8.698;2023-02-13T00:43:48;8.20;99.90
1570;DHT22;778;50.120;8.698;2023-02-13T00:46:18;8.20;99.90
1570;DHT22;778;50.120;8.698;2023-02-13T00:48:46;8.20;99.90
1570;DHT22;778;50.120;8.698;2023-02-13T00:51:15;8.20;99.90
1570;DHT22;778;50.120;8.698;2023-02-13T00:53:43;8.10;99.90
1570;DHT22;778;50.120;8.698;2023-02-13T00:56:14;8.10;99.90
1570;DHT22;778;50.120;8.698;2023-02-13T00:58:44;8.10;99.90
1570;DHT22;778;50.120;8.698;2023-02-13T01:01:12;8.10;99.90
1570;DHT22;778;50.120;8.698;2023-02-13T01:03:42;8.10;99.90
1570;DHT22;778;50.120;8.698;2023-02-13T01:06:11;8.10;99.90
1570;DHT22;778;50.120;8.698;2023-02-13T01:08:40;8.10;99.90
1570;DHT22;778;50.120;8.698;2023-02-13T01:11:09;8.10;99.90
1570;DHT22;778;50.120;8.698;2023-02-13T01:13:37;8.10;99.90
1570;DHT22;778;50.120;8.698;2023-02-13T01:16:06;8.10;99.90
1570;DHT22;778;50.120;8.698;2023-02-13T01:18:35;8.20;99.90
1570;DHT22;778;50.120;8.698;2023-02-13T01:21:07;8.20;99.90
1570;DHT22;778;50.120;8.698;2023-02-13T01:23:40;8.20;99.90
1570;DHT22;778;50.120;8.698;2023-02-13T01:26:12;8.10;99.90
1570;DHT22;778;50.120;8.698;2023-02-13T01:28:44;8.10;99.90
1570;DHT22;778;50.120;8.698;2023-02-13T01:31:13;8.10;99.90
1570;DHT22;778;50.120;8.698;2023-02-13T01:33:42;8.10;99.90
1570;DHT22;778;50.120;8.698;2023-02-13T01:36:13;8.10;99.90
1570;DHT22;778;50.120;8.698;2023-02-13T01:38:41;8.10;99.90
1570;DHT22;778;50.120;8.698;2023-02-13T01:41:10;8.00;99.90
1570;DHT22;778;50.120;8.698;2023-02-13T01:43:50;7.90;99.90
1570;DHT22;778;50.120;8.698;2023-02-13T01:46:27;7.90;99.90
1570;DHT22;778;50.120;8.698;2023-02-13T01:48:59;7.90;99.90
1570;DHT22;778;50.120;8.698;2023-02-13T01:51:34;8.00;99.90
1570;DHT22;778;50.120;8.698;2023-02-13T01:54:05;8.00;99.90
1570;DHT22;778;50.120;8.698;2023-02-13T01:56:39;8.00;99.90
1570;DHT22;778;50.120;8.698;2023-02-13T01:59:12;8.00;99.90
1570;DHT22;778;50.120;8.698;2023-02-13T02:01:43;7.90;99.90
1570;DHT22;778;50.120;8.698;2023-02-13T02:04:14;8.00;99.90
1570;DHT22;778;50.120;8.698;2023-02-13T02:06:49;8.30;99.90
1570;DHT22;778;50.120;8.698;2023-02-13T02:09:28;8.40;99.90
1570;DHT22;778;50.120;8.698;2023-02-13T02:12:01;8.40;99.90
1570;DHT22;778;50.120;8.698;2023-02-13T02:14:34;8.40;99.90
1570;DHT22;778;50.120;8.698;2023-02-13T02:17:06;8.30;99.90
1570;DHT22;778;50.120;8.698;2023-02-13T02:19:39;8.30;99.90
1570;DHT22;778;50.120;8.698;2023-02-13T02:22:44;8.20;99.90
1570;DHT22;778;50.120;8.698;2023-02-13T02:25:49;8.10;99.90
1570;DHT22;778;50.120;8.698;2023-02-13T02:28:54;8.20;99.90
1570;DHT22;778;50.120;8.698;2023-02-13T02:32:11;8.40;99.90
1570;DHT22;778;50.120;8.698;2023-02-13T02:34:53;8.50;99.90
1570;DHT22;778;50.120;8.698;2023-02-13T02:37:39;8.50;99.90
1570;DHT22;778;50.120;8.698;2023-02-13T02:40:23;8.50;99.90
1570;DHT22;778;50.120;8.698;2023-02-13T02:43:04;8.50;99.90
1570;DHT22;778;50.120;8.698;2023-02-13T02:45:46;8.30;99.90
1570;DHT22;778;50.120;8.698;2023-02-13T02:48:25;8.10;99.90
1570;DHT22;778;50.120;8.698;2023-02-13T02:51:23;8.00;99.90
1570;DHT22;778;50.120;8.698;2023-02-13T02:54:02;8.00;99.90
1570;DHT22;778;50.120;8.698;2023-02-13T02:56:59;7.90;99.90
1570;DHT22;778;50.120;8.698;2023-02-13T02:59:32;7.80;99.90
1570;DHT22;778;50.120;8.698;2023-02-13T03:02:18;7.70;99.90
1570;DHT22;778;50.120;8.698;2023-02-13T03:05:16;7.60;99.90
1570;DHT22;778;50.120;8.698;2023-02-13T03:08:04;7.50;99.90
1570;DHT22;778;50.120;8.698;2023-02-13T03:10:35;7.50;99.90
1570;DHT22;778;50.120;8.698;2023-02-13T03:13:36;7.40;99.90
1570;DHT22;778;50.120;8.698;2023-02-13T03:16:13;7.40;99.90
1570;DHT22;778;50.120;8.698;2023-02-13T03:19:02;7.40;99.90
1570;DHT22;778;50.120;8.698;2023-02-13T03:21:54;7.40;99.90
1570;DHT22;778;50.120;8.698;2023-02-13T03:24:47;7.40;99.90
1570;DHT22;778;50.120;8.698;2023-02-13T03:27:29;7.30;99.90
1570;DHT22;778;50.120;8.698;2023-02-13T03:30:28;7.20;99.90
1570;DHT22;778;50.120;8.698;2023-02-13T03:33:22;7.20;99.90
1570;DHT22;778;50.120;8.698;2023-02-13T03:36:14;7.20;99.90
1570;DHT22;778;50.120;8.698;2023-02-13T03:39:07;7.10;99.90
1570;DHT22;778;50.120;8.698;2023-02-13T03:41:42;7.10;99.90
1570;DHT22;778;50.120;8.698;2023-02-13T03:44:17;7.00;99.90
1570;DHT22;778;50.120;8.698;2023-02-13T03:46:52;7.00;99.90
1570;DHT22;778;50.120;8.698;2023-02-13T03:49:25;7.00;99.90
1570;DHT22;778;50.120;8.698;2023-02-13T03:52:18;6.90;99.90
1570;DHT22;778;50.120;8.698;2023-02-13T03:54:54;6.90;99.90
1570;DHT22;778;50.120;8.698;2023-02-13T03:57:43;6.90;99.90
1570;DHT22;778;50.120;8.698;2023-02-13T04:00:33;6.90;99.90
1570;DHT22;778;50.120;8.698;2023-02-13T04:03:07;6.90;99.90
1570;DHT22;778;50.120;8.698;2023-02-13T04:05:42;6.90;99.90
1570;DHT22;778;50.120;8.698;2023-02-13T04:08:12;6.90;99.90
1570;DHT22;778;50.120;8.698;2023-02-13T04:10:48;6.80;99.90
1570;DHT22;778;50.120;8.698;2023-02-13T04:13:23;6.80;99.90
1570;DHT22;778;50.120;8.698;2023-02-13T04:15:57;6.80;99.90
1570;DHT22;778;50.120;8.698;2023-02-13T04:18:31;6.70;99.90
1570;DHT22;778;50.120;8.698;2023-02-13T04:21:01;6.70;99.90
1570;DHT22;778;50.120;8.698;2023-02-13T04:23:31;6.70;99.90
1570;DHT22;778;50.120;8.698;2023-02-13T04:26:06;6.60;99.90
1570;DHT22;778;50.120;8.698;2023-02-13T04:28:37;6.60;99.90
1570;DHT22;778;50.120;8.698;2023-02-13T04:31:06;6.60;99.90
1570;DHT22;778;50.120;8.698;2023-02-13T04:33:35;6.50;99.90
1570;DHT22;778;50.120;8.698;2023-02-13T04:36:04;6.50;99.90
1570;DHT22;778;50.120;8.698;2023-02-13T04:38:32;6.50;99.90
1570;DHT22;778;50.120;8.698;2023-02-13T04:41:01;6.60;99.90
1570;DHT22;778;50.120;8.698;2023-02-13T04:43:31;6.60;99.90
1570;DHT22;778;50.120;8.698;2023-02-13T04:45:59;6.50;99.90
1570;DHT22;778;50.120;8.698;2023-02-13T04:48:28;6.50;99.90
1570;DHT22;778;50.120;8.698;2023-02-13T04:50:56;6.40;99.90
1570;DHT22;778;50.120;8.698;2023-02-13T04:53:25;6.40;99.90
1570;DHT22;778;50.120;8.698;2023-02-13T04:55:54;6.40;99.90
1570;DHT22;778;50.120;8.698;2023-02-13T04:58:22;6.40;99.90
1570;DHT22;778;50.120;8.698;2023-02-13T05:00:52;6.40;99.90
1570;DHT22;778;50.120;8.698;2023-02-13T05:03:21;6.40;99.90
1570;DHT22;778;50.120;8.698;2023-02-13T05:05:50;6.40;99.90
1570;DHT22;778;50.120;8.698;2023-02-13T05:08:18;6.40;99.90
1570;DHT22;778;50.120;8.698;2023-02-13T05:10:47;6.30;99.90
1570;DHT22;778;50.120;8.698;2023-02-13T05:13:16;6.30;99.90
1570;DHT22;778;50.120;8.698;2023-02-13T05:15:47;6.20;99.90
1570;DHT22;778;50.120;8.698;2023-02-13T05:18:17;6.20;99.90
1570;DHT22;778;50.120;8.698;2023-02-13T05:20:46;6.20;99.90
1570;DHT22;778;50.120;8.698;2023-02-13T05:23:36;6.20;99.90
1570;DHT22;778;50.120;8.698;2023-02-13T05:26:03;6.20;99.90
1570;DHT22;778;50.120;8.698;2023-02-13T05:28:32;6.20;99.90
1570;DHT22;778;50.120;8.698;2023-02-13T05:31:18;6.00;99.90
1570;DHT22;778;50.120;8.698;2023-02-13T05:33:48;6.00;99.90
1570;DHT22;778;50.120;8.698;2023-02-13T05:36:17;6.00;99.90
1570;DHT22;778;50.120;8.698;2023-02-13T05:38:45;5.90;99.90
1570;DHT22;778;50.120;8.698;2023-02-13T05:41:14;5.90;99.90
1570;DHT22;778;50.120;8.698;2023-02-13T05:43:42;5.80;99.90
1570;DHT22;778;50.120;8.698;2023-02-13T05:46:11;5.80;99.90
1570;DHT22;778;50.120;8.698;2023-02-13T05:48:40;5.80;99.90
1570;DHT22;778;50.120;8.698;2023-02-13T05:51:10;5.70;99.90
1570;DHT22;778;50.120;8.698;2023-02-13T05:53:38;5.70;99.90
1570;DHT22;778;50.120;8.698;2023-02-13T05:56:06;5.60;99.90
1570;DHT22;778;50.120;8.698;2023-02-13T05:58:35;5.60;99.90
1570;DHT22;778;50.120;8.698;2023-02-13T06:01:04;5.60;99.90
1570;DHT22;778;50.120;8.698;2023-02-13T06:03:33;5.50;99.90
1570;DHT22;778;50.120;8.698;2023-02-13T06:06:02;5.50;99.90
1570;DHT22;778;50.120;8.698;2023-02-13T06:08:32;5.50;99.90
1570;DHT22;778;50.120;8.698;2023-02-13T06:11:00;5.40;99.90
1570;DHT22;778;50.120;8.698;2023-02-13T06:13:29;5.40;99.90
1570;DHT22;778;50.120;8.698;2023-02-13T06:15:58;5.30;99.90
1570;DHT22;778;50.120;8.698;2023-02-13T06:18:26;5.30;99.90
1570;DHT22;778;50.120;8.698;2023-02-13T06:20:55;5.20;99.90
1570;DHT22;778;50.120;8.698;2023-02-13T06:23:25;5.20;99.90
1570;DHT22;778;50.120;8.698;2023-02-13T06:25:55;5.30;99.90
1570;DHT22;778;50.120;8.698;2023-02-13T06:28:24;5.20;99.90
1570;DHT22;778;50.120;8.698;2023-02-13T06:30:52;5.10;99.90
1570;DHT22;778;50.120;8.698;2023-02-13T06:33:22;5.10;99.90
1570;DHT22;778;50.120;8.698;2023-02-13T06:35:51;5.00;99.90
1570;DHT22;778;50.120;8.698;2023-02-13T06:38:19;5.00;99.90
1570;DHT22;778;50.120;8.698;2023-02-13T06:40:48;5.00;99.90
1570;DHT22;778;50.120;8.698;2023-02-13T06:43:18;5.00;99.90
1570;DHT22;778;50.120;8.698;2023-02-13T06:45:47;5.00;99.90
1570;DHT22;778;50.120;8.698;2023-02-13T06:48:17;5.00;99.90
1570;DHT22;778;50.120;8.698;2023-02-13T06:50:46;4.90;99.90
1570;DHT22;778;50.120;8.698;2023-02-13T06:53:15;4.80;99.90
1570;DHT22;778;50.120;8.698;2023-02-13T06:55:43;4.70;99.90
1570;DHT22;778;50.120;8.698;2023-02-13T06:58:12;4.80;99.90
1570;DHT22;778;50.120;8.698;2023-02-13T07:00:41;4.70;99.90
1570;DHT22;778;50.120;8.698;2023-02-13T07:03:10;4.70;99.90
1570;DHT22;778;50.120;8.698;2023-02-13T07:05:39;4.80;99.90
1570;DHT22;778;50.120;8.698;2023-02-13T07:08:09;4.80;99.90
1570;DHT22;778;50.120;8.698;2023-02-13T07:10:38;4.90;99.90
1570;DHT22;778;50.120;8.698;2023-02-13T07:13:07;4.80;99.90
1570;DHT22;778;50.120;8.698;2023-02-13T07:15:37;4.90;99.90
1570;DHT22;778;50.120;8.698;2023-02-13T07:18:07;4.70;99.90
1570;DHT22;778;50.120;8.698;2023-02-13T07:20:36;4.80;99.90
1570;DHT22;778;50.120;8.698;2023-02-13T07:23:05;4.80;99.90
1570;DHT22;778;50.120;8.698;2023-02-13T07:25:34;4.80;99.90
1570;DHT22;778;50.120;8.698;2023-02-13T07:28:03;4.70;99.90
1570;DHT22;778;50.120;8.698;2023-02-13T07:30:34;4.80;99.90
1570;DHT22;778;50.120;8.698;2023-02-13T07:33:04;4.80;99.90
1570;DHT22;778;50.120;8.698;2023-02-13T07:35:34;4.80;99.90
1570;DHT22;778;50.120;8.698;2023-02-13T07:38:03;4.80;99.90
1570;DHT22;778;50.120;8.698;2023-02-13T07:40:32;4.80;99.90
1570;DHT22;778;50.120;8.698;2023-02-13T07:43:00;4.80;99.90
1570;DHT22;778;50.120;8.698;2023-02-13T07:45:29;4.90;99.90
1570;DHT22;778;50.120;8.698;2023-02-13T07:47:58;4.90;99.90
1570;DHT22;778;50.120;8.698;2023-02-13T07:50:27;5.00;99.90
1570;DHT22;778;50.120;8.698;2023-02-13T07:52:58;5.00;99.90
1570;DHT22;778;50.120;8.698;2023-02-13T07:55:29;5.00;99.90
1570;DHT22;778;50.120;8.698;2023-02-13T07:57:59;5.00;99.90
1570;DHT22;778;50.120;8.698;2023-02-13T08:00:28;5.10;99.90
1570;DHT22;778;50.120;8.698;2023-02-13T08:02:58;5.20;99.90
1570;DHT22;778;50.120;8.698;2023-02-13T08:05:27;5.20;99.90
1570;DHT22;778;50.120;8.698;2023-02-13T08:07:57;5.20;99.90
1570;DHT22;778;50.120;8.698;2023-02-13T08:10:26;5.30;99.90
1570;DHT22;778;50.120;8.698;2023-02-13T08:13:12;5.20;99.90
1570;DHT22;778;50.120;8.698;2023-02-13T08:15:41;5.20;99.90
1570;DHT22;778;50.120;8.698;2023-02-13T08:18:10;5.30;99.90
1570;DHT22;778;50.120;8.698;2023-02-13T08:20:39;5.30;99.90
1570;DHT22;778;50.120;8.698;2023-02-13T08:23:10;5.30;99.90
1570;DHT22;778;50.120;8.698;2023-02-13T08:25:39;5.30;99.90
1570;DHT22;778;50.120;8.698;2023-02-13T08:28:07;5.40;99.90
1570;DHT22;778;50.120;8.698;2023-02-13T08:30:36;5.40;99.90
1570;DHT22;778;50.120;8.698;2023-02-13T08:33:04;5.40;99.90
1570;DHT22;778;50.120;8.698;2023-02-13T08:35:33;5.40;99.90
1570;DHT22;778;50.120;8.698;2023-02-13T08:38:02;5.40;99.90
1570;DHT22;778;50.120;8.698;2023-02-13T08:40:33;5.50;99.90
1570;DHT22;778;50.120;8.698;2023-02-13T08:43:02;5.60;99.90
1570;DHT22;778;50.120;8.698;2023-02-13T08:45:32;5.70;99.90
1570;DHT22;778;50.120;8.698;2023-02-13T08:48:00;5.70;99.90
1570;DHT22;778;50.120;8.698;2023-02-13T08:50:30;5.70;99.90
1570;DHT22;778;50.120;8.698;2023-02-13T08:53:01;5.70;99.90
1570;DHT22;778;50.120;8.698;2023-02-13T08:55:30;5.80;99.90
1570;DHT22;778;50.120;8.698;2023-02-13T08:58:00;5.80;99.90
1570;DHT22;778;50.120;8.698;2023-02-13T09:00:29;5.90;99.90
1570;DHT22;778;50.120;8.698;2023-02-13T09:03:00;6.00;99.90
1570;DHT22;778;50.120;8.698;2023-02-13T09:05:29;6.00;99.90
1570;DHT22;778;50.120;8.698;2023-02-13T09:07:59;6.00;99.90
1570;DHT22;778;50.120;8.698;2023-02-13T09:10:30;6.10;99.90
1570;DHT22;778;50.120;8.698;2023-02-13T09:13:00;6.20;99.90
1570;DHT22;778;50.120;8.698;2023-02-13T09:15:29;6.20;99.90
1570;DHT22;778;50.120;8.698;2023-02-13T09:17:58;6.30;99.90
1570;DHT22;778;50.120;8.698;2023-02-13T09:20:26;6.40;99.90
1570;DHT22;778;50.120;8.698;2023-02-13T09:22:55;6.30;99.90
1570;DHT22;778;50.120;8.698;2023-02-13T09:25:24;6.40;99.90
1570;DHT22;778;50.120;8.698;2023-02-13T09:27:52;6.50;99.90
1570;DHT22;778;50.120;8.698;2023-02-13T09:30:22;6.70;99.90
1570;DHT22;778;50.120;8.698;2023-02-13T09:32:51;6.90;99.90
1570;DHT22;778;50.120;8.698;2023-02-13T09:35:21;7.40;99.90
1570;DHT22;778;50.120;8.698;2023-02-13T09:37:49;8.00;99.90
1570;DHT22;778;50.120;8.698;2023-02-13T09:40:24;8.50;99.90
1570;DHT22;778;50.120;8.698;2023-02-13T09:43:05;9.00;99.90
1570;DHT22;778;50.120;8.698;2023-02-13T09:45:40;9.30;99.90
1570;DHT22;778;50.120;8.698;2023-02-13T09:48:17;9.40;99.90
1570;DHT22;778;50.120;8.698;2023-02-13T09:50:48;9.70;99.90
1570;DHT22;778;50.120;8.698;2023-02-13T09:53:20;9.80;99.90
1570;DHT22;778;50.120;8.698;2023-02-13T09:55:57;10.00;99.90
1570;DHT22;778;50.120;8.698;2023-02-13T09:58:42;10.00;99.90
1570;DHT22;778;50.120;8.698;2023-02-13T10:01:23;10.10;99.90
1570;DHT22;778;50.120;8.698;2023-02-13T10:04:24;9.90;99.90
1570;DHT22;778;50.120;8.698;2023-02-13T10:07:09;10.30;99.90
1570;DHT22;778;50.120;8.698;2023-02-13T10:09:49;10.50;99.90
1570;DHT22;778;50.120;8.698;2023-02-13T10:12:36;10.70;99.90
1570;DHT22;778;50.120;8.698;2023-02-13T10:15:20;10.90;99.90
1570;DHT22;778;50.120;8.698;2023-02-13T10:17:55;11.30;99.90
1570;DHT22;778;50.120;8.698;2023-02-13T10:20:31;11.30;99.90
1570;DHT22;778;50.120;8.698;2023-02-13T10:23:07;11.60;99.90
1570;DHT22;778;50.120;8.698;2023-02-13T10:25:46;11.90;99.90
1570;DHT22;778;50.120;8.698;2023-02-13T10:28:28;11.80;99.90
1570;DHT22;778;50.120;8.698;2023-02-13T10:31:04;11.80;99.90
1570;DHT22;778;50.120;8.698;2023-02-13T10:33:42;11.60;99.90
1570;DHT22;778;50.120;8.698;2023-02-13T10:36:18;12.10;99.90
1570;DHT22;778;50.120;8.698;2023-02-13T10:38:55;11.90;99.90
1570;DHT22;778;50.120;8.698;2023-02-13T10:41:33;12.30;99.90
1570;DHT22;778;50.120;8.698;2023-02-13T10:44:19;12.20;99.90
1570;DHT22;778;50.120;8.698;2023-02-13T10:46:59;12.10;99.90
1570;DHT22;778;50.120;8.698;2023-02-13T10:49:48;12.40;99.90
1570;DHT22;778;50.120;8.698;2023-02-13T10:52:33;12.50;99.90
1570;DHT22;778;50.120;8.698;2023-02-13T10:55:23;12.70;99.90
1570;DHT22;778;50.120;8.698;2023-02-13T10:58:08;12.90;99.90
1570;DHT22;778;50.120;8.698;2023-02-13T11:00:46;12.80;99.90
1570;DHT22;778;50.120;8.698;2023-02-13T11:03:18;12.90;99.90
1570;DHT22;778;50.120;8.698;2023-02-13T11:05:50;12.90;99.90
1570;DHT22;778;50.120;8.698;2023-02-13T11:08:22;12.70;99.90
1570;DHT22;778;50.120;8.698;2023-02-13T11:10:52;12.90;99.90
1570;DHT22;778;50.120;8.698;2023-02-13T11:13:22;13.10;99.90
1570;DHT22;778;50.120;8.698;2023-02-13T11:16:00;13.00;99.90
1570;DHT22;778;50.120;8.698;2023-02-13T11:18:31;12.90;99.90
1570;DHT22;778;50.120;8.698;2023-02-13T11:21:06;13.00;99.90
1570;DHT22;778;50.120;8.698;2023-02-13T11:23:42;13.10;99.90
1570;DHT22;778;50.120;8.698;2023-02-13T11:26:14;12.80;99.90
1570;DHT22;778;50.120;8.698;2023-02-13T11:28:52;12.90;99.90
1570;DHT22;778;50.120;8.698;2023-02-13T11:31:26;13.10;99.90
1570;DHT22;778;50.120;8.698;2023-02-13T11:33:56;13.20;99.90
1570;DHT22;778;50.120;8.698;2023-02-13T11:36:29;13.30;99.90
1570;DHT22;778;50.120;8.698;2023-02-13T11:39:00;13.70;99.90
1570;DHT22;778;50.120;8.698;2023-02-13T11:41:38;13.90;99.90
1570;DHT22;778;50.120;8.698;2023-02-13T11:44:21;13.90;99.90
1570;DHT22;778;50.120;8.698;2023-02-13T11:46:53;14.20;99.90
1570;DHT22;778;50.120;8.698;2023-02-13T11:49:24;14.40;99.90
1570;DHT22;778;50.120;8.698;2023-02-13T11:51:56;14.30;99.90
1570;DHT22;778;50.120;8.698;2023-02-13T11:54:29;14.30;99.90
1570;DHT22;778;50.120;8.698;2023-02-13T11:57:01;14.30;99.90
1570;DHT22;778;50.120;8.698;2023-02-13T11:59:39;14.50;99.90
1570;DHT22;778;50.120;8.698;2023-02-13T12:02:13;14.50;99.90
1570;DHT22;778;50.120;8.698;2023-02-13T12:04:44;14.00;99.90
1570;DHT22;778;50.120;8.698;2023-02-13T12:07:22;13.70;99.90
1570;DHT22;778;50.120;8.698;2023-02-13T12:09:59;13.60;99.90
1570;DHT22;778;50.120;8.698;2023-02-13T12:12:34;13.60;99.90
1570;DHT22;778;50.120;8.698;2023-02-13T12:15:15;13.30;99.90
1570;DHT22;778;50.120;8.698;2023-02-13T12:17:51;13.50;99.90
1570;DHT22;778;50.120;8.698;2023-02-13T12:20:26;13.80;99.90
1570;DHT22;778;50.120;8.698;2023-02-13T12:23:04;14.00;99.90
1570;DHT22;778;50.120;8.698;2023-02-13T12:26:05;13.90;99.90
1570;DHT22;778;50.120;8.698;2023-02-13T12:28:51;13.90;99.90
1570;DHT22;778;50.120;8.698;2023-02-13T12:31:43;13.60;99.90
1570;DHT22;778;50.120;8.698;2023-02-13T12:34:48;14.00;99.90
1570;DHT22;778;50.120;8.698;2023-02-13T12:38:02;14.30;99.90
1570;DHT22;778;50.120;8.698;2023-02-13T12:46:36;14.40;99.40
1570;DHT22;778;50.120;8.698;2023-02-13T12:49:19;14.40;99.90
1570;DHT22;778;50.120;8.698;2023-02-13T12:52:15;14.60;99.90
1570;DHT22;778;50.120;8.698;2023-02-13T12:54:59;14.60;98.40
1570;DHT22;778;50.120;8.698;2023-02-13T12:57:47;14.60;98.10
1570;DHT22;778;50.120;8.698;2023-02-13T13:00:37;14.60;97.10
1570;DHT22;778;50.120;8.698;2023-02-13T13:03:34;14.10;96.10
1570;DHT22;778;50.120;8.698;2023-02-13T13:06:16;13.70;99.10
1570;DHT22;778;50.120;8.698;2023-02-13T13:09:17;13.50;99.20
1570;DHT22;778;50.120;8.698;2023-02-13T13:12:18;13.40;99.90
1570;DHT22;778;50.120;8.698;2023-02-13T13:14:56;13.10;99.90
1570;DHT22;778;50.120;8.698;2023-02-13T13:17:40;13.20;99.90
1570;DHT22;778;50.120;8.698;2023-02-13T13:20:40;13.60;99.90
1570;DHT22;778;50.120;8.698;2023-02-13T13:23:20;13.90;99.90
1570;DHT22;778;50.120;8.698;2023-02-13T13:25:58;14.00;99.90
1570;DHT22;778;50.120;8.698;2023-02-13T13:28:38;14.00;98.90
1570;DHT22;778;50.120;8.698;2023-02-13T13:31:09;13.60;99.90
1570;DHT22;778;50.120;8.698;2023-02-13T13:33:42;13.60;98.60
1570;DHT22;778;50.120;8.698;2023-02-13T13:36:18;13.30;99.90
1570;DHT22;778;50.120;8.698;2023-02-13T13:38:56;13.30;98.70
1570;DHT22;778;50.120;8.698;2023-02-13T13:41:36;13.20;97.40
1570;DHT22;778;50.120;8.698;2023-02-13T13:44:23;13.00;97.30
1570;DHT22;778;50.120;8.698;2023-02-13T13:47:19;13.10;97.70
1570;DHT22;778;50.120;8.698;2023-02-13T13:49:54;13.20;97.30
1570;DHT22;778;50.120;8.698;2023-02-13T13:52:25;13.20;96.90
1570;DHT22;778;50.120;8.698;2023-02-13T13:54:56;13.20;95.30
1570;DHT22;778;50.120;8.698;2023-02-13T13:57:26;13.10;95.60
1570;DHT22;778;50.120;8.698;2023-02-13T14:00:31;12.90;96.40
1570;DHT22;778;50.120;8.698;2023-02-13T14:03:22;12.80;96.70
1570;DHT22;778;50.120;8.698;2023-02-13T14:06:04;12.80;97.60
1570;DHT22;778;50.120;8.698;2023-02-13T14:08:59;12.80;97.60
1570;DHT22;778;50.120;8.698;2023-02-13T14:11:35;13.00;97.40
1570;DHT22;778;50.120;8.698;2023-02-13T14:20:36;12.70;99.60
1570;DHT22;778;50.120;8.698;2023-02-13T14:23:19;12.70;99.60
1570;DHT22;778;50.120;8.698;2023-02-13T14:26:11;12.60;99.70
1570;DHT22;778;50.120;8.698;2023-02-13T14:29:28;12.60;99.90
1570;DHT22;778;50.120;8.698;2023-02-13T14:32:02;12.80;99.90
1570;DHT22;778;50.120;8.698;2023-02-13T14:34:51;12.70;99.90
1570;DHT22;778;50.120;8.698;2023-02-13T14:37:26;12.70;99.90
1570;DHT22;778;50.120;8.698;2023-02-13T14:40:44;12.90;99.90
1570;DHT22;778;50.120;8.698;2023-02-13T14:43:29;12.90;99.90
1570;DHT22;778;50.120;8.698;2023-02-13T14:46:21;12.80;99.90
1570;DHT22;778;50.120;8.698;2023-02-13T14:48:57;12.70;99.90
1570;DHT22;778;50.120;8.698;2023-02-13T14:51:34;12.60;99.90
1570;DHT22;778;50.120;8.698;2023-02-13T14:54:07;12.60;99.90
1570;DHT22;778;50.120;8.698;2023-02-13T14:56:44;12.50;99.90
1570;DHT22;778;50.120;8.698;2023-02-13T14:59:15;12.40;99.90
1570;DHT22;778;50.120;8.698;2023-02-13T15:01:47;12.30;99.90
1570;DHT22;778;50.120;8.698;2023-02-13T15:04:25;12.40;99.90
1570;DHT22;778;50.120;8.698;2023-02-13T15:07:00;12.40;99.90
1570;DHT22;778;50.120;8.698;2023-02-13T15:09:32;12.50;99.90
1570;DHT22;778;50.120;8.698;2023-02-13T15:12:23;12.60;99.90
1570;DHT22;778;50.120;8.698;2023-02-13T15:14:53;12.60;99.90
1570;DHT22;778;50.120;8.698;2023-02-13T15:17:25;12.60;99.90
1570;DHT22;778;50.120;8.698;2023-02-13T15:20:00;12.60;99.90
1570;DHT22;778;50.120;8.698;2023-02-13T15:22:36;12.60;99.90
1570;DHT22;778;50.120;8.698;2023-02-13T15:25:07;12.50;99.90
1570;DHT22;778;50.120;8.698;2023-02-13T15:27:40;12.50;99.90
1570;DHT22;778;50.120;8.698;2023-02-13T15:30:19;12.50;99.90
1570;DHT22;778;50.120;8.698;2023-02-13T15:32:53;12.40;99.90
1570;DHT22;778;50.120;8.698;2023-02-13T15:35:26;12.40;99.90
1570;DHT22;778;50.120;8.698;2023-02-13T15:37:58;12.30;99.90
1570;DHT22;778;50.120;8.698;2023-02-13T15:40:29;12.30;99.90
1570;DHT22;778;50.120;8.698;2023-02-13T15:43:00;12.20;99.90
1570;DHT22;778;50.120;8.698;2023-02-13T15:45:29;12.20;99.90
1570;DHT22;778;50.120;8.698;2023-02-13T15:47:57;12.20;99.90
1570;DHT22;778;50.120;8.698;2023-02-13T15:50:29;12.10;99.90
1570;DHT22;778;50.120;8.698;2023-02-13T15:53:02;12.10;99.90
1570;DHT22;778;50.120;8.698;2023-02-13T15:55:33;12.10;99.90
1570;DHT22;778;50.120;8.698;2023-02-13T15:58:04;12.00;99.90
1570;DHT22;778;50.120;8.698;2023-02-13T16:00:35;12.00;99.90
1570;DHT22;778;50.120;8.698;2023-02-13T16:03:10;11.90;99.90
1570;DHT22;778;50.120;8.698;2023-02-13T16:05:45;11.90;99.90
1570;DHT22;778;50.120;8.698;2023-02-13T16:08:30;11.90;99.90
1570;DHT22;778;50.120;8.698;2023-02-13T16:11:19;11.90;99.90
1570;DHT22;778;50.120;8.698;2023-02-13T16:14:00;11.70;99.90
1570;DHT22;778;50.120;8.698;2023-02-13T16:16:35;11.70;99.90
1570;DHT22;778;50.120;8.698;2023-02-13T16:19:30;11.60;99.90
1570;DHT22;778;50.120;8.698;2023-02-13T16:22:05;11.60;99.90
1570;DHT22;778;50.120;8.698;2023-02-13T16:24:48;11.50;99.90
1570;DHT22;778;50.120;8.698;2023-02-13T16:27:21;11.40;99.90
1570;DHT22;778;50.120;8.698;2023-02-13T16:29:55;11.40;99.90
1570;DHT22;778;50.120;8.698;2023-02-13T16:32:27;11.40;99.90
1570;DHT22;778;50.120;8.698;2023-02-13T16:35:28;11.50;99.90
1570;DHT22;778;50.120;8.698;2023-02-13T16:37:58;11.50;99.90
1570;DHT22;778;50.120;8.698;2023-02-13T16:40:39;11.40;99.90
1570;DHT22;778;50.120;8.698;2023-02-13T16:43:38;11.30;99.90
1570;DHT22;778;50.120;8.698;2023-02-13T16:46:10;11.40;99.90
1570;DHT22;778;50.120;8.698;2023-02-13T16:48:58;11.40;99.90
1570;DHT22;778;50.120;8.698;2023-02-13T16:51:33;11.10;99.90
1570;DHT22;778;50.120;8.698;2023-02-13T16:54:05;11.00;99.90
1570;DHT22;778;50.120;8.698;2023-02-13T16:56:47;10.90;99.90
1570;DHT22;778;50.120;8.698;2023-02-13T16:59:27;10.80;99.90
1570;DHT22;778;50.120;8.698;2023-02-13T17:02:22;10.70;99.90
1570;DHT22;778;50.120;8.698;2023-02-13T17:04:53;10.60;99.90
1570;DHT22;778;50.120;8.698;2023-02-13T17:07:25;10.60;99.90
1570;DHT22;778;50.120;8.698;2023-02-13T17:09:59;10.60;99.90
1570;DHT22;778;50.120;8.698;2023-02-13T17:12:33;10.60;99.90
1570;DHT22;778;50.120;8.698;2023-02-13T17:15:06;10.50;99.90
1570;DHT22;778;50.120;8.698;2023-02-13T17:17:38;10.40;99.90
1570;DHT22;778;50.120;8.698;2023-02-13T17:20:12;10.40;99.90
1570;DHT22;778;50.120;8.698;2023-02-13T17:22:44;10.30;99.90
1570;DHT22;778;50.120;8.698;2023-02-13T17:25:17;10.30;99.90
1570;DHT22;778;50.120;8.698;2023-02-13T17:27:50;10.30;99.90
1570;DHT22;778;50.120;8.698;2023-02-13T17:30:22;10.20;99.90
1570;DHT22;778;50.120;8.698;2023-02-13T17:32:56;10.20;99.90
1570;DHT22;778;50.120;8.698;2023-02-13T17:35:25;10.20;99.90